Terminal Aerodrome Forecast
Issued by NWS Albuquerque, NM

Home | Current Version | Previous Version | Text Only | Print | Product List | Glossary On
Versions: 1 2 3 4 5 6 7 8 9 10 11 12 13 14 15
999
FTUS45 KABQ 222322
TAFABQ
TAF
KABQ 222322Z 2300/2324 19015G25KT P6SM SCT080
     FM230200 15013KT P6SM SCT090
     FM230400 12010KT P6SM FEW120
     FM230800 06006KT P6SM SKC
     FM231600 19008KT P6SM SKC
     FM232000 19015G22KT P6SM SCT080=

USA.gov is the U.S. government's official web portal to all federal, state and local government web resources and services.